Terminal Aerodrome Forecast
Issued by NWS

Home | Current Version | Previous Version | Graphics & Text | Print | Product List | Glossary On
Versions: 1 2 3 4 5 6 7 8 9 10 11 12
000
FTUS43 KMPX 310528
TAFAXN
TAF
KAXN 310528Z 3106/0106 10004KT P6SM SKC
     FM311500 12008KT P6SM BKN200
     FM312000 13011KT P6SM BKN100
     FM010200 11006KT P6SM BKN150=

USA.gov is the U.S. government's official web portal to all federal, state and local government web resources and services.